createdAt,value
2023-11-30T00:00:23.979Z,0.00
2023-11-30T00:01:23.979Z,0.00
2023-11-30T00:02:23.911Z,0.00
2023-11-30T00:03:23.948Z,0.00
2023-11-30T00:04:23.827Z,0.00
2023-11-30T00:05:23.994Z,0.00
2023-11-30T00:06:23.829Z,0.00
2023-11-30T00:07:23.742Z,0.00
2023-11-30T00:08:23.717Z,0.00
2023-11-30T00:09:23.730Z,0.00
2023-11-30T00:10:23.673Z,0.00
2023-11-30T00:11:23.622Z,0.00
2023-11-30T00:12:23.676Z,0.00
2023-11-30T00:13:23.568Z,0.00
2023-11-30T00:14:23.544Z,0.00
2023-11-30T00:15:23.536Z,0.00
2023-11-30T00:16:23.553Z,0.00
2023-11-30T00:17:23.458Z,0.00
2023-11-30T00:18:23.489Z,0.00
2023-11-30T00:19:23.420Z,0.00
2023-11-30T00:20:23.391Z,0.00
2023-11-30T00:21:23.371Z,0.00
2023-11-30T00:22:23.305Z,0.00
2023-11-30T00:23:23.273Z,0.00
2023-11-30T00:24:23.339Z,0.00
2023-11-30T00:25:23.226Z,0.00
2023-11-30T00:26:23.204Z,0.00
2023-11-30T00:27:23.200Z,0.00
2023-11-30T00:28:23.152Z,0.00
2023-11-30T00:29:23.112Z,0.00
2023-11-30T00:30:23.115Z,0.00
2023-11-30T00:31:23.098Z,0.00
2023-11-30T00:32:23.032Z,0.00
2023-11-30T00:33:23.074Z,0.00
2023-11-30T00:34:22.956Z,0.00
2023-11-30T00:35:22.946Z,0.00
2023-11-30T00:36:22.968Z,0.00
2023-11-30T00:37:22.877Z,0.00
2023-11-30T00:38:22.839Z,0.00
2023-11-30T00:39:22.847Z,0.00
2023-11-30T00:40:22.794Z,0.00
2023-11-30T00:41:22.779Z,0.00
2023-11-30T00:42:23.003Z,0.00
2023-11-30T00:43:22.691Z,0.00
2023-11-30T00:44:22.800Z,0.00
2023-11-30T00:45:22.675Z,0.00
2023-11-30T00:46:22.629Z,0.00
2023-11-30T00:47:22.572Z,0.00
2023-11-30T00:48:22.644Z,0.00
2023-11-30T00:49:22.522Z,0.00
2023-11-30T00:50:22.517Z,0.00
2023-11-30T00:51:22.544Z,0.00
2023-11-30T00:52:22.443Z,0.00
2023-11-30T00:53:22.406Z,0.00
2023-11-30T00:54:22.435Z,0.00
2023-11-30T00:55:22.340Z,0.00
2023-11-30T00:56:22.317Z,0.00
2023-11-30T00:57:22.303Z,0.00
2023-11-30T00:58:22.268Z,0.00
2023-11-30T00:59:22.378Z,0.00
2023-11-30T01:00:22.268Z,0.00
2023-11-30T01:01:22.267Z,0.00
2023-11-30T01:02:22.187Z,0.00
2023-11-30T01:03:22.267Z,0.00
2023-11-30T01:04:22.265Z,0.00
2023-11-30T01:05:22.052Z,0.00
2023-11-30T01:06:22.045Z,0.00
2023-11-30T01:07:22.009Z,0.00
2023-11-30T01:08:21.976Z,0.00
2023-11-30T01:09:21.986Z,0.00
2023-11-30T01:10:21.899Z,0.00
2023-11-30T01:11:21.882Z,0.00
2023-11-30T01:12:21.924Z,0.00
2023-11-30T01:13:21.814Z,0.00
2023-11-30T01:14:21.785Z,0.00
2023-11-30T01:15:21.795Z,0.00
2023-11-30T01:16:21.762Z,0.00
2023-11-30T01:17:21.743Z,0.00
2023-11-30T01:18:21.725Z,0.00
2023-11-30T01:19:21.635Z,0.00
2023-11-30T01:20:21.607Z,0.00
2023-11-30T01:21:21.627Z,0.00
2023-11-30T01:22:21.553Z,0.00
2023-11-30T01:23:21.545Z,0.00
2023-11-30T01:24:21.516Z,0.00
2023-11-30T01:25:21.501Z,0.00
2023-11-30T01:26:21.446Z,0.00
2023-11-30T01:27:21.477Z,0.00
2023-11-30T01:28:21.381Z,0.00
2023-11-30T01:29:21.346Z,0.00
2023-11-30T01:30:21.364Z,0.00
2023-11-30T01:31:21.380Z,0.00
2023-11-30T01:32:21.256Z,0.00
2023-11-30T01:33:21.371Z,0.00
2023-11-30T01:34:21.196Z,0.00
2023-11-30T01:35:21.183Z,0.00
2023-11-30T01:36:21.199Z,0.00
2023-11-30T01:37:21.120Z,0.00
2023-11-30T01:38:21.080Z,0.00
2023-11-30T01:39:21.103Z,0.00
2023-11-30T01:40:21.028Z,0.00
2023-11-30T01:41:20.999Z,0.00
2023-11-30T01:42:20.990Z,0.00
2023-11-30T01:43:20.942Z,0.00
2023-11-30T01:44:20.917Z,0.00
2023-11-30T01:45:20.931Z,0.00
2023-11-30T01:46:20.861Z,0.00
2023-11-30T01:47:20.820Z,0.00
2023-11-30T01:48:20.829Z,0.00
2023-11-30T01:49:20.766Z,0.00
2023-11-30T01:50:20.739Z,0.00
2023-11-30T01:51:20.733Z,0.00
2023-11-30T01:52:20.669Z,0.00
2023-11-30T01:53:20.650Z,0.00
2023-11-30T01:54:20.636Z,0.00
2023-11-30T01:55:20.601Z,0.00
2023-11-30T01:56:20.553Z,0.00
2023-11-30T01:57:20.553Z,0.00
2023-11-30T01:58:20.495Z,0.00
2023-11-30T01:59:20.464Z,0.00
2023-11-30T02:00:20.537Z,0.00
2023-11-30T02:01:20.416Z,0.00
2023-11-30T02:02:20.419Z,0.00
2023-11-30T02:03:22.656Z,0.00
2023-11-30T02:04:20.381Z,0.00
2023-11-30T02:05:20.291Z,0.00
2023-11-30T02:06:20.421Z,0.00
2023-11-30T02:07:20.226Z,0.00
2023-11-30T02:08:20.199Z,0.00
2023-11-30T02:09:20.209Z,0.00
2023-11-30T02:10:20.138Z,0.00
2023-11-30T02:11:20.150Z,0.00
2023-11-30T02:12:20.101Z,0.00
2023-11-30T02:13:20.052Z,0.00
2023-11-30T02:14:20.024Z,0.00
2023-11-30T02:15:20.010Z,0.00
2023-11-30T02:16:20.020Z,0.00
2023-11-30T02:17:19.937Z,0.00
2023-11-30T02:18:19.983Z,0.00
2023-11-30T02:19:19.881Z,0.00
2023-11-30T02:20:19.848Z,0.00
2023-11-30T02:21:19.863Z,0.00
2023-11-30T02:22:19.790Z,0.00
2023-11-30T02:23:19.782Z,0.00
2023-11-30T02:24:19.838Z,0.00
2023-11-30T02:25:19.706Z,0.00
2023-11-30T02:26:19.672Z,0.00
2023-11-30T02:27:19.686Z,0.00
2023-11-30T02:28:19.611Z,0.00
2023-11-30T02:29:19.588Z,0.00
2023-11-30T02:30:19.623Z,0.00
2023-11-30T02:31:19.538Z,0.00
2023-11-30T02:32:19.494Z,0.00
2023-11-30T02:33:19.860Z,0.00
2023-11-30T02:34:19.457Z,0.00
2023-11-30T02:35:19.418Z,0.00
2023-11-30T02:36:19.586Z,0.00
2023-11-30T02:37:19.352Z,0.00
2023-11-30T02:38:19.323Z,0.00
2023-11-30T02:39:19.315Z,0.00
2023-11-30T02:40:19.264Z,0.00
2023-11-30T02:41:19.235Z,0.00
2023-11-30T02:42:19.241Z,0.00
2023-11-30T02:43:19.217Z,0.00
2023-11-30T02:44:19.142Z,0.00
2023-11-30T02:45:19.163Z,0.00
2023-11-30T02:46:19.127Z,0.00
2023-11-30T02:47:19.073Z,0.00
2023-11-30T02:48:19.130Z,0.00
2023-11-30T02:49:18.999Z,0.00
2023-11-30T02:50:18.968Z,0.00
2023-11-30T02:51:19.027Z,0.00
2023-11-30T02:52:18.930Z,0.00
2023-11-30T02:53:18.902Z,0.00
2023-11-30T02:54:18.993Z,0.00
2023-11-30T02:55:18.837Z,0.00
2023-11-30T02:56:18.793Z,0.00
2023-11-30T02:57:18.771Z,0.00
2023-11-30T02:58:18.742Z,0.00
2023-11-30T02:59:18.727Z,0.00
2023-11-30T03:00:18.713Z,0.00
2023-11-30T03:01:18.690Z,0.00
2023-11-30T03:02:18.706Z,0.00
2023-11-30T03:03:18.676Z,0.00
2023-11-30T03:04:18.594Z,0.00
2023-11-30T03:05:18.544Z,0.00
2023-11-30T03:06:18.538Z,0.00
2023-11-30T03:07:18.472Z,0.00
2023-11-30T03:08:18.436Z,0.00
2023-11-30T03:09:18.487Z,0.00
2023-11-30T03:10:19.816Z,0.00
2023-11-30T03:11:18.358Z,0.00
2023-11-30T03:12:18.370Z,0.00
2023-11-30T03:13:18.318Z,0.00
2023-11-30T03:14:18.264Z,0.00
2023-11-30T03:15:18.298Z,0.00
2023-11-30T03:16:18.250Z,0.00
2023-11-30T03:17:18.188Z,0.00
2023-11-30T03:18:18.194Z,0.00
2023-11-30T03:19:18.246Z,0.00
2023-11-30T03:20:18.085Z,0.00
2023-11-30T03:21:18.139Z,0.00
2023-11-30T03:22:18.032Z,0.00
2023-11-30T03:23:18.005Z,0.00
2023-11-30T03:24:18.046Z,0.00
2023-11-30T03:25:17.947Z,0.00
2023-11-30T03:26:17.916Z,0.00
2023-11-30T03:27:17.924Z,0.00
2023-11-30T03:28:17.856Z,0.00
2023-11-30T03:29:17.840Z,0.00
2023-11-30T03:30:17.842Z,0.00
2023-11-30T03:31:17.812Z,0.00
2023-11-30T03:32:17.738Z,0.00
2023-11-30T03:33:17.737Z,0.00
2023-11-30T03:34:17.684Z,0.00
2023-11-30T03:35:17.660Z,0.00
2023-11-30T03:36:17.692Z,0.00
2023-11-30T03:37:17.650Z,0.00
2023-11-30T03:38:17.570Z,0.00
2023-11-30T03:39:17.555Z,0.00
2023-11-30T03:40:17.515Z,0.00
2023-11-30T03:41:17.484Z,0.00
2023-11-30T03:42:17.493Z,0.00
2023-11-30T03:43:17.420Z,0.00
2023-11-30T03:44:17.390Z,0.00
2023-11-30T03:45:17.453Z,0.00
2023-11-30T03:46:17.392Z,0.00
2023-11-30T03:47:17.347Z,0.00
2023-11-30T03:48:17.338Z,0.00
2023-11-30T03:49:17.243Z,0.00
2023-11-30T03:50:17.234Z,0.00
2023-11-30T03:51:17.223Z,0.00
2023-11-30T03:52:17.153Z,0.00
2023-11-30T03:53:17.124Z,0.00
2023-11-30T03:54:17.144Z,0.00
2023-11-30T03:55:17.069Z,0.00
2023-11-30T03:56:17.041Z,0.00
2023-11-30T03:57:17.038Z,0.00
2023-11-30T03:58:16.984Z,0.00
2023-11-30T03:59:16.963Z,0.00
2023-11-30T04:00:16.937Z,0.00
2023-11-30T04:01:16.893Z,0.00
2023-11-30T04:02:17.007Z,0.00
2023-11-30T04:03:16.884Z,0.00
2023-11-30T04:04:16.906Z,0.00
2023-11-30T04:05:16.803Z,0.00
2023-11-30T04:06:16.759Z,0.00
2023-11-30T04:07:16.726Z,0.00
2023-11-30T04:08:16.684Z,0.00
2023-11-30T04:09:19.086Z,0.00
2023-11-30T04:10:16.632Z,0.00
2023-11-30T04:11:16.601Z,0.00
2023-11-30T04:12:16.614Z,0.00
2023-11-30T04:13:16.542Z,0.00
2023-11-30T04:14:16.516Z,0.00
2023-11-30T04:15:16.527Z,0.00
2023-11-30T04:16:16.557Z,0.00
2023-11-30T04:17:16.425Z,0.00
2023-11-30T04:18:16.504Z,0.00
2023-11-30T04:19:16.396Z,0.00
2023-11-30T04:20:16.340Z,0.00
2023-11-30T04:21:16.343Z,0.00
2023-11-30T04:22:16.278Z,0.00
2023-11-30T04:23:16.245Z,0.00
2023-11-30T04:24:16.265Z,0.00
2023-11-30T04:25:16.198Z,0.00
2023-11-30T04:26:16.157Z,0.00
2023-11-30T04:27:16.166Z,0.00
2023-11-30T04:28:16.102Z,0.00
2023-11-30T04:29:16.082Z,0.00
2023-11-30T04:30:16.066Z,0.00
2023-11-30T04:31:16.037Z,0.00
2023-11-30T04:32:15.984Z,0.00
2023-11-30T04:33:15.983Z,0.00
2023-11-30T04:34:15.923Z,0.00
2023-11-30T04:35:15.915Z,0.00
2023-11-30T04:36:15.892Z,0.00
2023-11-30T04:37:15.840Z,0.00
2023-11-30T04:38:15.808Z,0.00
2023-11-30T04:39:15.828Z,0.00
2023-11-30T04:40:15.762Z,0.00
2023-11-30T04:41:15.726Z,0.00
2023-11-30T04:42:15.705Z,0.00
2023-11-30T04:43:15.669Z,0.00
2023-11-30T04:44:15.632Z,0.00
2023-11-30T04:45:15.665Z,0.00
2023-11-30T04:46:15.655Z,0.00
2023-11-30T04:47:15.549Z,0.00
2023-11-30T04:48:15.582Z,0.00
2023-11-30T04:49:15.514Z,0.00
2023-11-30T04:50:15.461Z,0.00
2023-11-30T04:51:15.492Z,0.00
2023-11-30T04:52:15.399Z,0.00
2023-11-30T04:53:15.379Z,0.00
2023-11-30T04:54:15.349Z,0.00
2023-11-30T04:55:15.310Z,0.00
2023-11-30T04:56:15.276Z,0.00
2023-11-30T04:57:15.297Z,0.00
2023-11-30T04:58:15.226Z,0.00
2023-11-30T04:59:15.192Z,0.00
2023-11-30T05:00:15.189Z,0.00
2023-11-30T05:01:15.134Z,0.00
2023-11-30T05:02:15.265Z,0.00
2023-11-30T05:03:15.252Z,0.00
2023-11-30T05:04:15.225Z,0.00
2023-11-30T05:05:15.037Z,0.00
2023-11-30T05:06:15.044Z,0.00
2023-11-30T05:07:14.997Z,0.00
2023-11-30T05:08:14.970Z,0.00
2023-11-30T05:09:14.943Z,0.00
2023-11-30T05:10:14.875Z,0.00
2023-11-30T05:11:14.852Z,0.00
2023-11-30T05:12:14.844Z,0.00
2023-11-30T05:13:14.793Z,0.00
2023-11-30T05:14:14.764Z,0.00
2023-11-30T05:15:14.813Z,0.00
2023-11-30T05:16:14.700Z,0.00
2023-11-30T05:17:14.669Z,0.00
2023-11-30T05:18:14.718Z,0.00
2023-11-30T05:19:14.615Z,0.00
2023-11-30T05:20:14.594Z,0.00
2023-11-30T05:21:14.575Z,0.00
2023-11-30T05:22:14.548Z,0.00
2023-11-30T05:23:14.511Z,0.00
2023-11-30T05:24:14.494Z,4.00
2023-11-30T05:25:14.449Z,4.00
2023-11-30T05:26:14.408Z,4.00
2023-11-30T05:27:14.409Z,4.00
2023-11-30T05:28:14.359Z,4.00
2023-11-30T05:29:14.321Z,0.00
2023-11-30T05:30:14.368Z,0.00
2023-11-30T05:31:14.279Z,0.00
2023-11-30T05:32:14.246Z,0.00
2023-11-30T05:33:14.258Z,0.00
2023-11-30T05:34:14.180Z,0.00
2023-11-30T05:35:14.152Z,0.00
2023-11-30T05:36:14.144Z,0.00
2023-11-30T05:37:14.092Z,0.00
2023-11-30T05:38:14.061Z,0.00
2023-11-30T05:39:14.102Z,0.00
2023-11-30T05:40:14.005Z,0.00
2023-11-30T05:41:13.975Z,0.00
2023-11-30T05:42:13.980Z,0.00
2023-11-30T05:43:13.908Z,0.00
2023-11-30T05:44:13.899Z,0.00
2023-11-30T05:45:13.870Z,0.00
2023-11-30T05:46:13.838Z,0.00
2023-11-30T05:47:13.809Z,0.00
2023-11-30T05:48:13.867Z,0.00
2023-11-30T05:49:13.804Z,0.00
2023-11-30T05:50:13.806Z,0.00
2023-11-30T05:51:13.734Z,0.00
2023-11-30T05:52:13.667Z,0.00
2023-11-30T05:53:13.651Z,0.00
2023-11-30T05:54:13.647Z,0.00
2023-11-30T05:55:13.581Z,0.00
2023-11-30T05:56:13.544Z,0.00
2023-11-30T05:57:13.507Z,0.00
2023-11-30T05:58:13.473Z,0.00
2023-11-30T05:59:13.442Z,0.00
2023-11-30T06:00:13.454Z,0.00
2023-11-30T06:01:13.386Z,0.00
2023-11-30T06:02:13.407Z,0.00
2023-11-30T06:03:13.398Z,0.00
2023-11-30T06:04:13.405Z,0.00
2023-11-30T06:05:13.466Z,0.00
2023-11-30T06:06:13.280Z,0.00
2023-11-30T06:07:13.225Z,0.00
2023-11-30T06:08:13.199Z,0.00
2023-11-30T06:09:13.161Z,0.00
2023-11-30T06:10:13.133Z,0.00
2023-11-30T06:11:13.122Z,0.00
2023-11-30T06:12:13.090Z,0.00
2023-11-30T06:13:13.039Z,0.00
2023-11-30T06:14:13.013Z,0.00
2023-11-30T06:15:13.016Z,0.00
2023-11-30T06:16:12.979Z,0.00
2023-11-30T06:17:12.931Z,0.00
2023-11-30T06:18:12.899Z,0.00
2023-11-30T06:19:12.879Z,0.00
2023-11-30T06:20:12.841Z,0.00
2023-11-30T06:21:12.858Z,0.00
2023-11-30T06:22:12.783Z,0.00
2023-11-30T06:23:12.737Z,0.00
2023-11-30T06:24:12.804Z,0.00
2023-11-30T06:25:12.694Z,0.00
2023-11-30T06:26:12.666Z,0.00
2023-11-30T06:27:12.667Z,0.00
2023-11-30T06:28:12.620Z,0.00
2023-11-30T06:29:12.567Z,0.00
2023-11-30T06:30:12.582Z,0.00
2023-11-30T06:31:12.533Z,0.00
2023-11-30T06:32:12.494Z,0.00
2023-11-30T06:33:12.527Z,0.00
2023-11-30T06:34:12.424Z,0.00
2023-11-30T06:35:12.389Z,0.00
2023-11-30T06:36:12.405Z,0.00
2023-11-30T06:37:12.338Z,0.00
2023-11-30T06:38:12.339Z,0.00
2023-11-30T06:39:12.270Z,0.00
2023-11-30T06:40:12.263Z,0.00
2023-11-30T06:41:12.215Z,0.00
2023-11-30T06:42:12.208Z,0.00
2023-11-30T06:43:12.184Z,0.00
2023-11-30T06:44:12.131Z,0.00
2023-11-30T06:45:12.152Z,0.00
2023-11-30T06:46:12.073Z,0.00
2023-11-30T06:47:12.091Z,0.00
2023-11-30T06:48:12.227Z,0.00
2023-11-30T06:49:11.986Z,0.00
2023-11-30T06:50:11.958Z,0.00
2023-11-30T06:51:11.941Z,4.00
2023-11-30T06:52:11.902Z,4.00
2023-11-30T06:53:11.868Z,0.00
2023-11-30T06:54:11.896Z,0.00
2023-11-30T06:55:11.809Z,4.00
2023-11-30T06:56:11.776Z,4.00
2023-11-30T06:57:11.900Z,0.00
2023-11-30T06:58:11.716Z,4.00
2023-11-30T06:59:11.710Z,4.00
2023-11-30T07:00:11.716Z,4.00
2023-11-30T07:01:11.638Z,4.00
2023-11-30T07:02:11.641Z,4.00
2023-11-30T07:03:11.666Z,8.00
2023-11-30T07:04:11.660Z,4.00
2023-11-30T07:05:11.583Z,8.00
2023-11-30T07:06:11.548Z,8.00
2023-11-30T07:07:20.132Z,8.00
2023-11-30T07:08:11.426Z,12.00
2023-11-30T07:09:11.400Z,8.00
2023-11-30T07:10:11.365Z,12.00
2023-11-30T07:11:11.337Z,12.00
2023-11-30T07:12:12.879Z,12.00
2023-11-30T07:13:11.277Z,12.00
2023-11-30T07:14:11.250Z,16.00
2023-11-30T07:15:11.294Z,12.00
2023-11-30T07:16:11.236Z,16.00
2023-11-30T07:17:11.158Z,16.00
2023-11-30T07:18:11.210Z,16.00
2023-11-30T07:19:11.096Z,20.00
2023-11-30T07:20:11.079Z,24.00
2023-11-30T07:21:11.098Z,20.00
2023-11-30T07:22:11.011Z,24.00
2023-11-30T07:23:10.982Z,24.00
2023-11-30T07:24:13.234Z,24.00
2023-11-30T07:25:10.931Z,28.00
2023-11-30T07:26:10.906Z,28.00
2023-11-30T07:27:10.903Z,32.00
2023-11-30T07:28:10.836Z,32.00
2023-11-30T07:29:10.813Z,36.00
2023-11-30T07:30:10.877Z,36.00
2023-11-30T07:31:10.821Z,36.00
2023-11-30T07:32:10.729Z,36.00
2023-11-30T07:33:10.834Z,36.00
2023-11-30T07:34:10.673Z,36.00
2023-11-30T07:35:10.647Z,40.00
2023-11-30T07:36:12.645Z,40.00
2023-11-30T07:37:10.575Z,40.00
2023-11-30T07:38:10.551Z,44.00
2023-11-30T07:39:10.554Z,48.00
2023-11-30T07:40:10.500Z,48.00
2023-11-30T07:41:10.474Z,52.00
2023-11-30T07:42:10.464Z,52.00
2023-11-30T07:43:10.505Z,52.00
2023-11-30T07:44:10.377Z,52.00
2023-11-30T07:45:10.556Z,56.00
2023-11-30T07:46:10.357Z,56.00
2023-11-30T07:47:10.306Z,56.00
2023-11-30T07:48:10.373Z,56.00
2023-11-30T07:49:10.229Z,60.00
2023-11-30T07:50:10.199Z,60.00
2023-11-30T07:51:10.200Z,60.00
2023-11-30T07:52:10.153Z,64.00
2023-11-30T07:53:10.132Z,60.00
2023-11-30T07:54:10.141Z,64.00
2023-11-30T07:55:10.046Z,64.00
2023-11-30T07:56:10.017Z,64.00
2023-11-30T07:57:10.002Z,68.00
2023-11-30T07:58:09.958Z,72.00
2023-11-30T07:59:09.934Z,76.00
2023-11-30T08:00:09.955Z,76.00
2023-11-30T08:01:09.872Z,80.00
2023-11-30T08:02:09.851Z,80.00
2023-11-30T08:03:09.867Z,84.00
2023-11-30T08:04:09.888Z,88.00
2023-11-30T08:05:09.757Z,92.00
2023-11-30T08:06:09.731Z,96.00
2023-11-30T08:07:09.708Z,100.00
2023-11-30T08:08:09.673Z,116.00
2023-11-30T08:09:09.745Z,120.00
2023-11-30T08:10:09.624Z,116.00
2023-11-30T08:11:09.608Z,120.00
2023-11-30T08:12:09.577Z,124.00
2023-11-30T08:13:09.520Z,132.00
2023-11-30T08:14:09.498Z,144.00
2023-11-30T08:15:09.496Z,144.00
2023-11-30T08:16:09.448Z,156.00
2023-11-30T08:17:09.412Z,160.00
2023-11-30T08:18:09.466Z,160.00
2023-11-30T08:19:09.397Z,164.00
2023-11-30T08:20:09.317Z,168.00
2023-11-30T08:21:09.305Z,168.00
2023-11-30T08:22:09.257Z,176.00
2023-11-30T08:23:09.224Z,184.00
2023-11-30T08:24:09.220Z,188.00
2023-11-30T08:25:09.175Z,196.00
2023-11-30T08:26:09.146Z,204.00
2023-11-30T08:27:09.133Z,204.00
2023-11-30T08:28:09.078Z,208.00
2023-11-30T08:29:09.055Z,212.00
2023-11-30T08:30:09.088Z,216.00
2023-11-30T08:31:08.999Z,228.00
2023-11-30T08:32:08.974Z,236.00
2023-11-30T08:33:09.048Z,252.00
2023-11-30T08:34:08.907Z,272.00
2023-11-30T08:35:08.910Z,280.00
2023-11-30T08:36:08.889Z,296.00
2023-11-30T08:37:08.824Z,312.00
2023-11-30T08:38:08.791Z,328.00
2023-11-30T08:39:08.805Z,348.00
2023-11-30T08:40:08.789Z,388.00
2023-11-30T08:41:08.699Z,360.00
2023-11-30T08:42:08.718Z,344.00
2023-11-30T08:43:08.642Z,332.00
2023-11-30T08:44:08.614Z,320.00
2023-11-30T08:45:08.612Z,328.00
2023-11-30T08:46:08.658Z,332.00
2023-11-30T08:47:08.539Z,332.00
2023-11-30T08:48:08.573Z,348.00
2023-11-30T08:49:08.469Z,372.00
2023-11-30T08:50:08.437Z,388.00
2023-11-30T08:51:08.491Z,400.00
2023-11-30T08:52:08.376Z,348.00
2023-11-30T08:53:08.353Z,360.00
2023-11-30T08:54:08.354Z,412.00
2023-11-30T08:55:08.313Z,428.00
2023-11-30T08:56:08.268Z,428.00
2023-11-30T08:57:08.240Z,484.00
2023-11-30T08:58:08.205Z,496.00
2023-11-30T08:59:08.208Z,504.00
2023-11-30T09:00:08.175Z,508.00
2023-11-30T09:01:08.113Z,532.00
2023-11-30T09:02:08.136Z,576.00
2023-11-30T09:03:08.098Z,548.00
2023-11-30T09:04:08.075Z,528.00
2023-11-30T09:05:07.999Z,520.00
2023-11-30T09:06:07.990Z,488.00
2023-11-30T09:07:07.965Z,468.00
2023-11-30T09:08:07.911Z,444.00
2023-11-30T09:09:07.934Z,424.00
2023-11-30T09:10:07.873Z,428.00
2023-11-30T09:11:07.825Z,452.00
2023-11-30T09:12:07.828Z,468.00
2023-11-30T09:13:07.773Z,496.00
2023-11-30T09:14:07.743Z,520.00
2023-11-30T09:15:07.755Z,556.00
2023-11-30T09:16:07.712Z,536.00
2023-11-30T09:17:07.659Z,488.00
2023-11-30T09:18:07.702Z,468.00
2023-11-30T09:19:07.600Z,448.00
2023-11-30T09:20:07.562Z,388.00
2023-11-30T09:21:07.582Z,304.00
2023-11-30T09:22:07.509Z,252.00
2023-11-30T09:23:07.489Z,236.00
2023-11-30T09:24:07.495Z,240.00
2023-11-30T09:25:07.417Z,248.00
2023-11-30T09:26:07.393Z,256.00
2023-11-30T09:27:07.395Z,272.00
2023-11-30T09:28:07.333Z,300.00
2023-11-30T09:29:07.450Z,320.00
2023-11-30T09:30:07.285Z,316.00
2023-11-30T09:31:07.397Z,300.00
2023-11-30T09:32:07.231Z,276.00
2023-11-30T09:33:07.241Z,264.00
2023-11-30T09:34:07.157Z,260.00
2023-11-30T09:35:07.182Z,280.00
2023-11-30T09:36:07.159Z,328.00
2023-11-30T09:37:07.074Z,452.00
2023-11-30T09:38:07.040Z,600.00
2023-11-30T09:39:07.035Z,648.00
2023-11-30T09:40:06.972Z,548.00
2023-11-30T09:41:07.012Z,444.00
2023-11-30T09:42:06.934Z,400.00
2023-11-30T09:43:06.893Z,388.00
2023-11-30T09:44:06.864Z,424.00
2023-11-30T09:45:06.862Z,508.00
2023-11-30T09:46:06.848Z,540.00
2023-11-30T09:47:06.779Z,432.00
2023-11-30T09:48:06.824Z,360.00
2023-11-30T09:49:08.507Z,340.00
2023-11-30T09:50:06.684Z,360.00
2023-11-30T09:51:06.679Z,404.00
2023-11-30T09:52:06.663Z,432.00
2023-11-30T09:53:06.598Z,408.00
2023-11-30T09:54:06.598Z,380.00
2023-11-30T09:55:06.582Z,412.00
2023-11-30T09:56:06.510Z,452.00
2023-11-30T09:57:06.528Z,520.00
2023-11-30T09:58:06.452Z,624.00
2023-11-30T09:59:06.424Z,696.00
2023-11-30T10:00:06.430Z,740.00
2023-11-30T10:01:06.399Z,752.00
2023-11-30T10:02:07.703Z,684.00
2023-11-30T10:03:06.437Z,688.00
2023-11-30T10:04:06.348Z,704.00
2023-11-30T10:05:06.246Z,656.00
2023-11-30T10:06:06.242Z,628.00
2023-11-30T10:07:06.192Z,624.00
2023-11-30T10:08:06.156Z,572.00
2023-11-30T10:09:06.153Z,560.00
2023-11-30T10:10:06.100Z,564.00
2023-11-30T10:11:06.110Z,492.00
2023-11-30T10:12:06.108Z,432.00
2023-11-30T10:13:06.019Z,420.00
2023-11-30T10:14:06.001Z,456.00
2023-11-30T10:15:06.077Z,480.00
2023-11-30T10:16:06.006Z,468.00
2023-11-30T10:17:06.015Z,496.00
2023-11-30T10:18:06.079Z,564.00
2023-11-30T10:19:07.971Z,620.00
2023-11-30T10:20:05.819Z,700.00
2023-11-30T10:21:05.786Z,712.00
2023-11-30T10:22:05.751Z,692.00
2023-11-30T10:23:05.729Z,644.00
2023-11-30T10:24:05.725Z,580.00
2023-11-30T10:25:05.671Z,520.00
2023-11-30T10:26:05.629Z,480.00
2023-11-30T10:27:05.676Z,440.00
2023-11-30T10:28:05.575Z,400.00
2023-11-30T10:29:05.561Z,368.00
2023-11-30T10:30:05.602Z,344.00
2023-11-30T10:31:05.507Z,320.00
2023-11-30T10:32:05.458Z,292.00
2023-11-30T10:33:05.609Z,276.00
2023-11-30T10:34:05.532Z,264.00
2023-11-30T10:35:05.422Z,264.00
2023-11-30T10:36:05.380Z,272.00
2023-11-30T10:37:05.317Z,288.00
2023-11-30T10:38:05.288Z,300.00
2023-11-30T10:39:05.284Z,304.00
2023-11-30T10:40:05.243Z,296.00
2023-11-30T10:41:05.204Z,292.00
2023-11-30T10:42:05.189Z,292.00
2023-11-30T10:43:05.160Z,296.00
2023-11-30T10:44:05.110Z,328.00
2023-11-30T10:45:05.151Z,380.00
2023-11-30T10:46:05.050Z,372.00
2023-11-30T10:47:05.026Z,360.00
2023-11-30T10:48:05.066Z,372.00
2023-11-30T10:49:04.987Z,364.00
2023-11-30T10:50:04.931Z,344.00
2023-11-30T10:51:04.930Z,316.00
2023-11-30T10:52:04.874Z,304.00
2023-11-30T10:53:04.843Z,292.00
2023-11-30T10:54:04.823Z,272.00
2023-11-30T10:55:04.789Z,264.00
2023-11-30T10:56:04.751Z,264.00
2023-11-30T10:57:04.724Z,284.00
2023-11-30T10:58:04.694Z,316.00
2023-11-30T10:59:04.696Z,344.00
2023-11-30T11:00:04.642Z,380.00
2023-11-30T11:01:04.678Z,420.00
2023-11-30T11:02:04.733Z,476.00
2023-11-30T11:03:04.624Z,532.00
2023-11-30T11:04:04.593Z,560.00
2023-11-30T11:05:04.498Z,552.00
2023-11-30T11:06:04.461Z,516.00
2023-11-30T11:07:04.443Z,488.00
2023-11-30T11:08:04.415Z,460.00
2023-11-30T11:09:04.387Z,424.00
2023-11-30T11:10:04.410Z,404.00
2023-11-30T11:11:04.331Z,408.00
2023-11-30T11:12:04.287Z,432.00
2023-11-30T11:13:04.270Z,448.00
2023-11-30T11:14:04.231Z,468.00
2023-11-30T11:15:04.236Z,508.00
2023-11-30T11:16:04.454Z,532.00
2023-11-30T11:17:04.167Z,560.00
2023-11-30T11:18:04.234Z,576.00
2023-11-30T11:19:04.173Z,568.00
2023-11-30T11:20:04.070Z,560.00
2023-11-30T11:21:04.048Z,568.00
2023-11-30T11:22:04.014Z,564.00
2023-11-30T11:23:04.148Z,560.00
2023-11-30T11:24:03.952Z,540.00
2023-11-30T11:25:03.929Z,516.00
2023-11-30T11:26:03.898Z,496.00
2023-11-30T11:27:03.868Z,496.00
2023-11-30T11:28:03.941Z,508.00
2023-11-30T11:29:03.808Z,532.00
2023-11-30T11:30:03.836Z,492.00
2023-11-30T11:31:03.993Z,412.00
2023-11-30T11:32:03.857Z,376.00
2023-11-30T11:33:03.714Z,384.00
2023-11-30T11:34:03.682Z,368.00
2023-11-30T11:35:03.639Z,336.00
2023-11-30T11:36:03.617Z,328.00
2023-11-30T11:37:03.594Z,360.00
2023-11-30T11:38:03.551Z,396.00
2023-11-30T11:39:03.522Z,436.00
2023-11-30T11:40:03.538Z,448.00
2023-11-30T11:41:03.471Z,448.00
2023-11-30T11:42:03.429Z,460.00
2023-11-30T11:43:03.407Z,500.00
2023-11-30T11:44:03.449Z,572.00
2023-11-30T11:45:03.467Z,560.00
2023-11-30T11:46:03.450Z,524.00
2023-11-30T11:47:03.334Z,524.00
2023-11-30T11:48:03.284Z,528.00
2023-11-30T11:49:03.232Z,524.00
2023-11-30T11:50:03.203Z,500.00
2023-11-30T11:51:03.170Z,488.00
2023-11-30T11:52:03.163Z,480.00
2023-11-30T11:53:03.115Z,456.00
2023-11-30T11:54:03.089Z,436.00
2023-11-30T11:55:03.072Z,440.00
2023-11-30T11:56:03.043Z,484.00
2023-11-30T11:57:03.001Z,480.00
2023-11-30T11:58:03.065Z,504.00
2023-11-30T11:59:02.938Z,472.00
2023-11-30T12:00:02.915Z,480.00
2023-11-30T12:01:03.047Z,476.00
2023-11-30T12:02:02.971Z,464.00
2023-11-30T12:03:02.860Z,456.00
2023-11-30T12:04:02.882Z,440.00
2023-11-30T12:05:02.771Z,448.00
2023-11-30T12:06:02.737Z,480.00
2023-11-30T12:07:02.715Z,524.00
2023-11-30T12:08:02.687Z,548.00
2023-11-30T12:09:02.668Z,532.00
2023-11-30T12:10:02.630Z,484.00
2023-11-30T12:11:02.596Z,460.00
2023-11-30T12:12:02.562Z,408.00
2023-11-30T12:13:02.547Z,372.00
2023-11-30T12:14:02.579Z,364.00
2023-11-30T12:15:02.478Z,384.00
2023-11-30T12:16:02.662Z,428.00
2023-11-30T12:17:02.441Z,492.00
2023-11-30T12:18:02.439Z,620.00
2023-11-30T12:19:02.391Z,748.00
2023-11-30T12:20:02.333Z,784.00
2023-11-30T12:21:02.319Z,752.00
2023-11-30T12:22:02.273Z,728.00
2023-11-30T12:23:02.325Z,684.00
2023-11-30T12:24:02.216Z,700.00
2023-11-30T12:25:02.193Z,696.00
2023-11-30T12:26:02.155Z,672.00
2023-11-30T12:27:02.128Z,616.00
2023-11-30T12:28:02.107Z,536.00
2023-11-30T12:29:02.076Z,472.00
2023-11-30T12:30:02.047Z,428.00
2023-11-30T12:31:02.016Z,404.00
2023-11-30T12:32:02.133Z,404.00
2023-11-30T12:33:01.976Z,408.00
2023-11-30T12:34:02.016Z,428.00
2023-11-30T12:35:01.939Z,464.00
2023-11-30T12:36:01.895Z,504.00
2023-11-30T12:37:01.953Z,524.00
2023-11-30T12:38:01.820Z,496.00
2023-11-30T12:39:01.784Z,468.00
2023-11-30T12:40:01.863Z,432.00
2023-11-30T12:41:01.735Z,376.00
2023-11-30T12:42:03.569Z,336.00
2023-11-30T12:43:01.687Z,320.00
2023-11-30T12:44:03.517Z,304.00
2023-11-30T12:45:01.607Z,300.00
2023-11-30T12:46:01.649Z,300.00
2023-11-30T12:47:01.554Z,312.00
2023-11-30T12:48:01.541Z,336.00
2023-11-30T12:49:01.533Z,344.00
2023-11-30T12:50:01.516Z,352.00
2023-11-30T12:51:01.462Z,340.00
2023-11-30T12:52:01.411Z,336.00
2023-11-30T12:53:01.371Z,340.00
2023-11-30T12:54:01.364Z,328.00
2023-11-30T12:55:01.618Z,332.00
2023-11-30T12:56:01.301Z,324.00
2023-11-30T12:57:01.259Z,328.00